Aviation Digital Data Service (ADDS)

Output produced by METARs form (0239 UTC 22 February 2019)
found at http://www.aviationweather.gov/metar/data/
 
Forecast for: LEGT (MADRID/GETAFE (A, ES)
Text: TAF LEGT 220200Z 2203/2212 07004KT CAVOK
Forecast period: 0300 to 1200 UTC 22 February 2019
Forecast type: FROM: standard forecast or significant change
Winds: from the ENE (70 degrees) at 5 MPH (4 knots; 2.1 m/s)
Visibility: 6 or more miles 10+ km)
Ceiling: unknown
Clouds: missing
Weather: NSW  (no significant weather)